Time;durP1;ratioP1;P1;durP2;ratioP2;P2;SDS_P1;SDS_P2;PMS_P1;PMS_P2;Temp;Humidity;BMP_temperature;BMP_pressure;BME280_temperature;BME280_humidity;BME280_pressure;Samples;Min_cycle;Max_cycle;Signal;HPM_P1;HPM_P2
2024/01/04 00:03:53;;;;;;;3.03;0.25;;;;;;;-146.30;100.00;58188.94;10493530;28;20187;-84
2024/01/04 00:08:55;;;;;;;0.15;0.10;;;;;;;-146.30;100.00;58188.94;10496228;28;20049;-83
2024/01/04 00:13:59;;;;;;;0.10;0.10;;;;;;;-146.30;100.00;58188.94;10509302;28;20053;-84
2024/01/04 00:19:02;;;;;;;0.00;0.00;;;;;;;-146.30;100.00;58188.94;10460161;28;20048;-84
2024/01/04 00:24:04;;;;;;;0.00;0.00;;;;;;;-146.30;100.00;58188.94;10482395;28;20039;-84
2024/01/04 00:29:06;;;;;;;0.20;0.10;;;;;;;-146.30;100.00;58188.94;10504121;28;20102;-85
2024/01/04 00:34:08;;;;;;;0.28;0.28;;;;;;;-146.30;100.00;58188.94;10480558;28;20143;-85
2024/01/04 00:39:10;;;;;;;0.00;0.00;;;;;;;-146.30;100.00;58188.94;10475476;28;20049;-85
2024/01/04 00:44:12;;;;;;;0.35;0.35;;;;;;;-146.30;100.00;58188.94;10491966;28;20052;-85
2024/01/04 00:49:14;;;;;;;0.25;0.10;;;;;;;-146.30;100.00;58188.94;10476099;28;20048;-85
2024/01/04 00:54:16;;;;;;;0.00;0.00;;;;;;;-146.30;100.00;58188.94;10491446;28;20052;-85
2024/01/04 00:59:18;;;;;;;0.77;0.77;;;;;;;-146.30;100.00;58188.94;10477740;28;20052;-84
2024/01/04 01:04:19;;;;;;;0.10;0.10;;;;;;;-146.30;100.00;58188.94;10478889;28;20570;-84
2024/01/04 01:09:21;;;;;;;0.00;0.00;;;;;;;-146.30;100.00;58188.94;10474273;28;20500;-84
2024/01/04 01:14:23;;;;;;;0.00;0.00;;;;;;;-146.30;100.00;58188.94;10491097;28;20328;-85
2024/01/04 01:19:25;;;;;;;0.05;0.00;;;;;;;-146.30;100.00;58188.94;10507944;28;20072;-84
2024/01/04 01:24:27;;;;;;;0.00;0.00;;;;;;;-146.30;100.00;58188.94;10491603;28;20425;-84
2024/01/04 01:29:29;;;;;;;0.85;0.10;;;;;;;-146.30;100.00;58188.94;10475180;28;20491;-84
2024/01/04 01:34:31;;;;;;;0.00;0.00;;;;;;;-146.30;100.00;58188.94;10488074;28;20131;-84
2024/01/04 01:39:33;;;;;;;0.43;0.30;;;;;;;-146.30;100.00;58188.94;10481192;28;20056;-85
2024/01/04 01:44:35;;;;;;;0.10;0.10;;;;;;;-146.30;100.00;58188.94;10484074;28;20044;-84
2024/01/04 01:49:37;;;;;;;0.00;0.00;;;;;;;-146.30;100.00;58188.94;10490978;28;20056;-84
2024/01/04 01:54:39;;;;;;;0.20;0.20;;;;;;;-146.30;100.00;58188.94;10499187;28;20484;-84
2024/01/04 01:59:44;;;;;;;0.57;0.15;;;;;;;-146.30;100.00;58188.94;10459475;28;20059;-85
2024/01/04 02:04:47;;;;;;;0.30;0.30;;;;;;;-146.30;100.00;58188.94;10491628;28;20131;-84
2024/01/04 02:09:49;;;;;;;0.00;0.00;;;;;;;-146.30;100.00;58188.94;10479712;28;21109;-85
2024/01/04 02:14:54;;;;;;;0.00;0.00;;;;;;;-146.30;100.00;58188.94;10485533;28;20041;-83
2024/01/04 02:19:57;;;;;;;0.30;0.30;;;;;;;-146.30;100.00;58188.94;10510345;28;20078;-84
2024/01/04 02:24:59;;;;;;;0.00;0.00;;;;;;;-146.30;100.00;58188.94;10504463;28;20380;-83
2024/01/04 02:30:01;;;;;;;0.10;0.05;;;;;;;-146.30;100.00;58188.94;10474195;28;20143;-83
2024/01/04 02:35:04;;;;;;;0.00;0.00;;;;;;;-146.30;100.00;58188.94;10482790;28;21819;-83
2024/01/04 02:40:07;;;;;;;0.08;0.08;;;;;;;-146.30;100.00;58188.94;10500698;28;20048;-83
2024/01/04 02:45:08;;;;;;;0.30;0.20;;;;;;;-146.30;100.00;58188.94;10506968;28;20534;-84
2024/01/04 02:50:11;;;;;;;0.00;0.00;;;;;;;-146.30;100.00;58188.94;10486443;28;20510;-84
2024/01/04 02:55:13;;;;;;;0.52;0.05;;;;;;;-146.30;100.00;58188.94;10501470;28;20106;-84
2024/01/04 03:00:17;;;;;;;0.22;0.20;;;;;;;-146.30;100.00;58188.94;10499234;28;20106;-84
2024/01/04 03:05:19;;;;;;;0.00;0.00;;;;;;;-146.30;100.00;58188.94;10487445;28;20040;-83
2024/01/04 03:10:20;;;;;;;3.20;0.00;;;;;;;-146.30;100.00;58188.94;10470032;28;20128;-83
2024/01/04 03:15:22;;;;;;;0.00;0.00;;;;;;;-146.30;100.00;58188.94;10476901;28;20136;-83
2024/01/04 03:20:24;;;;;;;0.55;0.55;;;;;;;-146.30;100.00;58188.94;10477028;28;20392;-82
2024/01/04 03:25:26;;;;;;;0.20;0.15;;;;;;;-146.30;100.00;58188.94;10506915;28;20048;-83
2024/01/04 03:30:27;;;;;;;0.08;0.05;;;;;;;-146.30;100.00;58188.94;10479192;28;20055;-82
2024/01/04 03:35:29;;;;;;;0.00;0.00;;;;;;;-146.30;100.00;58188.94;10510716;28;20037;-83
2024/01/04 03:40:31;;;;;;;0.30;0.30;;;;;;;-146.30;100.00;58188.94;10476029;28;20048;-83
2024/01/04 03:45:33;;;;;;;0.17;0.10;;;;;;;-146.30;100.00;58188.94;10493596;28;20148;-83
2024/01/04 03:50:35;;;;;;;0.00;0.00;;;;;;;-146.30;100.00;58188.94;10499141;28;20087;-82
2024/01/04 03:55:37;;;;;;;0.52;0.45;;;;;;;-146.30;100.00;58188.94;10517917;28;20041;-83
2024/01/04 04:00:38;;;;;;;0.00;0.00;;;;;;;-146.30;100.00;58188.94;10492875;28;20131;-83
2024/01/04 04:05:44;;;;;;;0.10;0.10;;;;;;;-146.30;100.00;58188.94;10476813;28;20049;-83
2024/01/04 04:10:46;;;;;;;0.52;0.30;;;;;;;-146.30;100.00;58188.94;10473945;28;20040;-83
2024/01/04 04:15:48;;;;;;;0.10;0.10;;;;;;;-146.30;100.00;58188.94;10479892;28;20048;-83
2024/01/04 04:20:49;;;;;;;0.10;0.10;;;;;;;-146.30;100.00;58188.94;10475080;28;20094;-83
2024/01/04 04:25:51;;;;;;;0.00;0.00;;;;;;;-146.30;100.00;58188.94;10496974;28;20044;-82
2024/01/04 04:30:53;;;;;;;0.38;0.22;;;;;;;-146.30;100.00;58188.94;10472694;28;20046;-82
2024/01/04 04:35:55;;;;;;;0.08;0.05;;;;;;;-146.30;100.00;58188.94;10474785;28;20043;-82
2024/01/04 04:41:06;;;;;;;0.10;0.10;;;;;;;-146.30;100.00;58188.94;10457387;28;20529;-83
2024/01/04 04:46:11;;;;;;;1.15;0.55;;;;;;;-146.30;100.00;58188.94;10492553;28;20047;-82
2024/01/04 04:51:13;;;;;;;0.03;0.00;;;;;;;-146.30;100.00;58188.94;10475207;28;20124;-83
2024/01/04 04:56:15;;;;;;;0.00;0.00;;;;;;;-146.30;100.00;58188.94;10491487;28;20109;-83
2024/01/04 05:01:16;;;;;;;0.00;0.00;;;;;;;-146.30;100.00;58188.94;10476679;28;20048;-82
2024/01/04 05:06:18;;;;;;;0.00;0.00;;;;;;;-146.30;100.00;58188.94;10495098;28;20048;-82
2024/01/04 05:11:20;;;;;;;0.00;0.00;;;;;;;-146.30;100.00;58188.94;10485616;28;20052;-83
2024/01/04 05:16:22;;;;;;;0.30;0.00;;;;;;;-146.30;100.00;58188.94;10482561;28;20040;-83
2024/01/04 05:21:23;;;;;;;0.10;0.10;;;;;;;-146.30;100.00;58188.94;10498416;28;20445;-83
2024/01/04 05:26:26;;;;;;;0.52;0.08;;;;;;;-146.30;100.00;58188.94;10499917;28;20041;-83
2024/01/04 05:31:28;;;;;;;0.00;0.00;;;;;;;-146.30;100.00;58188.94;10468060;28;20517;-83
2024/01/04 05:36:30;;;;;;;0.00;0.00;;;;;;;-146.30;100.00;58188.94;10499680;28;20059;-82
2024/01/04 05:41:31;;;;;;;0.00;0.00;;;;;;;-146.30;100.00;58188.94;10498373;28;20388;-84
2024/01/04 05:46:33;;;;;;;2.60;0.20;;;;;;;-146.30;100.00;58188.94;10471570;28;20090;-83
2024/01/04 05:51:35;;;;;;;0.00;0.00;;;;;;;-146.30;100.00;58188.94;10498356;28;20079;-83
2024/01/04 05:56:44;;;;;;;0.00;0.00;;;;;;;-146.30;100.00;58188.94;10482151;28;20407;-83
2024/01/04 06:01:47;;;;;;;0.20;0.17;;;;;;;-146.30;100.00;58188.94;10476274;28;20450;-83
2024/01/04 06:06:49;;;;;;;0.00;0.00;;;;;;;-146.30;100.00;58188.94;10476931;28;20044;-83
2024/01/04 06:11:50;;;;;;;0.10;0.10;;;;;;;-146.30;100.00;58188.94;10479084;28;20074;-83
2024/01/04 06:16:53;;;;;;;0.17;0.17;;;;;;;-146.30;100.00;58188.94;10479797;28;20055;-83
2024/01/04 06:21:54;;;;;;;0.00;0.00;;;;;;;-146.30;100.00;58188.94;10475478;28;20052;-83
2024/01/04 06:26:56;;;;;;;0.00;0.00;;;;;;;-146.30;100.00;58188.94;10479690;28;20072;-83
2024/01/04 06:31:58;;;;;;;1.05;0.13;;;;;;;-146.30;100.00;58188.94;10481975;28;20274;-83
2024/01/04 06:37:00;;;;;;;0.20;0.13;;;;;;;-146.30;100.00;58188.94;10457832;28;20511;-83
2024/01/04 06:42:04;;;;;;;0.00;0.00;;;;;;;-146.30;100.00;58188.94;10505393;28;20052;-83
2024/01/04 06:47:07;;;;;;;0.00;0.00;;;;;;;-146.30;100.00;58188.94;10499047;28;20078;-83
2024/01/04 06:52:08;;;;;;;0.08;0.05;;;;;;;-146.30;100.00;58188.94;10481439;28;20049;-83
2024/01/04 06:57:10;;;;;;;0.00;0.00;;;;;;;-146.30;100.00;58188.94;10515061;28;20518;-83
2024/01/04 07:02:12;;;;;;;0.00;0.00;;;;;;;-146.30;100.00;58188.94;10461991;28;20519;-82
2024/01/04 07:07:14;;;;;;;0.20;0.10;;;;;;;-146.30;100.00;58188.94;10481777;28;20048;-83
2024/01/04 07:12:17;;;;;;;0.10;0.10;;;;;;;-146.30;100.00;58188.94;10519026;28;20052;-83
2024/01/04 07:17:19;;;;;;;0.00;0.00;;;;;;;-146.30;100.00;58188.94;10465222;28;20048;-83
2024/01/04 07:22:21;;;;;;;0.35;0.20;;;;;;;-146.30;100.00;58188.94;10478469;28;20059;-84
2024/01/04 07:27:23;;;;;;;0.00;0.00;;;;;;;-146.30;100.00;58188.94;10492480;28;20143;-83
2024/01/04 07:32:25;;;;;;;0.00;0.00;;;;;;;-146.30;100.00;58188.94;10492915;28;20086;-83
2024/01/04 07:37:27;;;;;;;0.03;0.03;;;;;;;-146.30;100.00;58188.94;10515028;28;20550;-83
2024/01/04 07:42:29;;;;;;;0.20;0.00;;;;;;;-146.30;100.00;58188.94;10479095;28;20076;-82
2024/01/04 07:47:31;;;;;;;0.00;0.00;;;;;;;-146.30;100.00;58188.94;10491268;28;20051;-83
2024/01/04 07:52:33;;;;;;;0.00;0.00;;;;;;;-146.30;100.00;58188.94;10484712;28;20051;-83
2024/01/04 07:57:35;;;;;;;0.20;0.20;;;;;;;-146.30;100.00;58188.94;10482768;28;20069;-83
2024/01/04 08:02:37;;;;;;;0.10;0.10;;;;;;;-146.30;100.00;58188.94;10479747;28;20044;-83
2024/01/04 08:07:40;;;;;;;0.85;0.77;;;;;;;-146.30;100.00;58188.94;10476115;28;20068;-83
2024/01/04 08:12:45;;;;;;;0.00;0.00;;;;;;;-146.30;100.00;58188.94;10483290;28;20102;-84
2024/01/04 08:17:47;;;;;;;0.88;0.13;;;;;;;-146.30;100.00;58188.94;10495190;28;21421;-83
2024/01/04 08:22:49;;;;;;;0.00;0.00;;;;;;;-146.30;100.00;58188.94;10485992;28;20051;-83
2024/01/04 08:27:51;;;;;;;0.00;0.00;;;;;;;-146.30;100.00;58188.94;10476580;28;20048;-83
2024/01/04 08:32:53;;;;;;;0.00;0.00;;;;;;;-146.30;100.00;58188.94;10465640;28;20131;-83
2024/01/04 08:37:55;;;;;;;0.00;0.00;;;;;;;-146.30;100.00;58188.94;10479419;28;20335;-83
2024/01/04 08:42:57;;;;;;;0.00;0.00;;;;;;;-146.30;100.00;58188.94;10495346;28;20095;-83
2024/01/04 08:47:59;;;;;;;0.00;0.00;;;;;;;-146.30;100.00;58188.94;10484758;28;20110;-83
2024/01/04 08:53:01;;;;;;;0.00;0.00;;;;;;;-146.30;100.00;58188.94;10499889;28;20064;-83
2024/01/04 08:58:03;;;;;;;4.05;0.22;;;;;;;-146.30;100.00;58188.94;10486686;28;20040;-83
2024/01/04 09:03:04;;;;;;;2.60;1.50;;;;;;;-146.30;100.00;58188.94;10504569;28;20044;-82
2024/01/04 09:08:07;;;;;;;0.00;0.00;;;;;;;-146.30;100.00;58188.94;10487073;28;20047;-83
2024/01/04 09:13:09;;;;;;;0.00;0.00;;;;;;;-146.30;100.00;58188.94;10500942;28;21071;-83
2024/01/04 09:18:11;;;;;;;0.20;0.10;;;;;;;-146.30;100.00;58188.94;10482367;28;20045;-83
2024/01/04 09:23:13;;;;;;;0.35;0.32;;;;;;;-146.30;100.00;58188.94;10487508;28;20046;-83
2024/01/04 09:28:15;;;;;;;0.00;0.00;;;;;;;-146.30;100.00;58188.94;10469131;28;20406;-83
2024/01/04 09:33:16;;;;;;;0.10;0.10;;;;;;;-146.30;100.00;58188.94;10512772;28;20101;-83
2024/01/04 09:38:19;;;;;;;1.08;0.75;;;;;;;-146.30;100.00;58188.94;10483100;28;20051;-83
2024/01/04 09:43:21;;;;;;;0.10;0.10;;;;;;;-146.30;100.00;58188.94;10500189;28;20511;-83
2024/01/04 09:48:25;;;;;;;0.00;0.00;;;;;;;-146.30;100.00;58188.94;10492135;28;20151;-83
2024/01/04 09:53:35;;;;;;;0.00;0.00;;;;;;;-146.30;100.00;58188.94;10496328;28;20066;-83
2024/01/04 09:58:37;;;;;;;0.10;0.00;;;;;;;-146.30;100.00;58188.94;10503961;28;20045;-83
2024/01/04 10:03:46;;;;;;;0.00;0.00;;;;;;;-146.30;100.00;58188.94;10487455;28;20049;-83
2024/01/04 10:08:52;;;;;;;0.00;0.00;;;;;;;-146.30;100.00;58188.94;10495450;28;20040;-83
2024/01/04 10:13:54;;;;;;;0.00;0.00;;;;;;;-146.30;100.00;58188.94;10488578;28;20049;-81
2024/01/04 10:18:58;;;;;;;0.10;0.10;;;;;;;-146.30;100.00;58188.94;10473269;28;20045;-81
2024/01/04 10:24:02;;;;;;;0.17;0.10;;;;;;;-146.30;100.00;58188.94;10479441;28;20044;-81
2024/01/04 10:29:04;;;;;;;0.00;0.00;;;;;;;-146.30;100.00;58188.94;10455534;28;20063;-81
2024/01/04 10:34:05;;;;;;;0.00;0.00;;;;;;;-146.30;100.00;58188.94;10496016;28;20053;-81
2024/01/04 10:39:08;;;;;;;0.00;0.00;;;;;;;-146.30;100.00;58188.94;10468173;28;20094;-81
2024/01/04 10:44:10;;;;;;;0.60;0.20;;;;;;;-146.30;100.00;58188.94;10495887;28;20048;-82
2024/01/04 10:49:16;;;;;;;0.00;0.00;;;;;;;-146.30;100.00;58188.94;10486303;28;20055;-81
2024/01/04 10:54:19;;;;;;;0.00;0.00;;;;;;;-146.30;100.00;58188.94;10480425;28;20052;-81
2024/01/04 10:59:22;;;;;;;0.00;0.00;;;;;;;-146.30;100.00;58188.94;10463822;28;20056;-81
2024/01/04 11:04:25;;;;;;;0.10;0.10;;;;;;;-146.30;100.00;58188.94;10474955;28;20051;-81
2024/01/04 11:09:30;;;;;;;0.00;0.00;;;;;;;-146.30;100.00;58188.94;10457284;28;20442;-81
2024/01/04 11:14:32;;;;;;;0.10;0.10;;;;;;;-146.30;100.00;58188.94;10494277;28;20047;-81
2024/01/04 11:20:15;;;;;;;0.20;0.20;;;;;;;-146.30;100.00;58188.94;10477347;28;20141;-81
2024/01/04 11:25:37;;;;;;;0.17;0.17;;;;;;;-146.30;100.00;58188.94;10474675;28;20048;-81
2024/01/04 11:30:39;;;;;;;0.98;0.17;;;;;;;-146.30;100.00;58188.94;10452213;28;20515;-81
2024/01/04 11:35:40;;;;;;;0.00;0.00;;;;;;;-146.30;100.00;58188.94;10460555;28;20139;-81
2024/01/04 11:40:49;;;;;;;0.08;0.08;;;;;;;-146.30;100.00;58188.94;10493324;28;20453;-81
2024/01/04 11:45:51;;;;;;;0.17;0.17;;;;;;;-146.30;100.00;58188.94;10482726;28;20044;-81
2024/01/04 11:50:52;;;;;;;0.00;0.00;;;;;;;-146.30;100.00;58188.94;10513025;28;20127;-82
2024/01/04 11:56:04;;;;;;;0.00;0.00;;;;;;;-146.30;100.00;58188.94;10477534;28;20568;-81
2024/01/04 12:01:06;;;;;;;0.10;0.10;;;;;;;-146.30;100.00;58188.94;10485137;28;20045;-81
2024/01/04 12:06:09;;;;;;;0.00;0.00;;;;;;;-146.30;100.00;58188.94;10459370;28;20136;-81
2024/01/04 12:11:11;;;;;;;0.20;0.20;;;;;;;-146.30;100.00;58188.94;10475410;28;20055;-81
2024/01/04 12:16:14;;;;;;;0.10;0.10;;;;;;;-146.30;100.00;58188.94;10475726;28;20377;-81
2024/01/04 12:21:16;;;;;;;0.00;0.00;;;;;;;-146.30;100.00;58188.94;10509261;28;20573;-81
2024/01/04 12:26:26;;;;;;;0.40;0.40;;;;;;;-146.30;100.00;58188.94;10483156;28;20036;-81
2024/01/04 12:31:29;;;;;;;0.00;0.00;;;;;;;-146.30;100.00;58188.94;10494027;28;20036;-81
2024/01/04 12:36:32;;;;;;;0.40;0.20;;;;;;;-146.30;100.00;58188.94;10507535;28;20044;-82
2024/01/04 12:41:37;;;;;;;0.52;0.22;;;;;;;-146.30;100.00;58188.94;10476698;28;20120;-81
2024/01/04 12:46:39;;;;;;;0.40;0.40;;;;;;;-146.30;100.00;58188.94;10509051;28;20082;-82
2024/01/04 12:51:42;;;;;;;1.25;0.60;;;;;;;-146.30;100.00;58188.94;10458501;28;20052;-82
2024/01/04 12:56:44;;;;;;;0.55;0.22;;;;;;;-146.30;100.00;58188.94;10492059;28;20077;-82
2024/01/04 13:01:46;;;;;;;0.00;0.00;;;;;;;-146.30;100.00;58188.94;10491362;28;20048;-82
2024/01/04 13:06:48;;;;;;;0.00;0.00;;;;;;;-146.30;100.00;58188.94;10508817;28;20037;-84
2024/01/04 13:11:51;;;;;;;0.20;0.20;;;;;;;-146.30;100.00;58188.94;10475691;28;20056;-83
2024/01/04 13:16:53;;;;;;;0.00;0.00;;;;;;;-146.30;100.00;58188.94;10467576;28;20048;-82
2024/01/04 13:21:55;;;;;;;0.32;0.20;;;;;;;-146.30;100.00;58188.94;10458308;28;20135;-82
2024/01/04 13:26:57;;;;;;;0.10;0.10;;;;;;;-146.30;100.00;58188.94;10495964;28;20041;-84
2024/01/04 13:32:00;;;;;;;0.00;0.00;;;;;;;-146.30;100.00;58188.94;10473500;28;20036;-83
2024/01/04 13:37:03;;;;;;;0.00;0.00;;;;;;;-146.30;100.00;58188.94;10502161;28;20052;-82
2024/01/04 13:42:05;;;;;;;0.10;0.10;;;;;;;-146.30;100.00;58188.94;10500988;28;20044;-83
2024/01/04 13:47:07;;;;;;;0.20;0.20;;;;;;;-146.30;100.00;58188.94;10485620;28;20032;-83
2024/01/04 13:52:10;;;;;;;0.10;0.10;;;;;;;-146.30;100.00;58188.94;10484417;28;20405;-83
2024/01/04 13:57:12;;;;;;;0.00;0.00;;;;;;;-146.30;100.00;58188.94;10499816;28;20135;-83
2024/01/04 14:02:15;;;;;;;0.00;0.00;;;;;;;-146.30;100.00;58188.94;10473442;28;20052;-83
2024/01/04 14:07:17;;;;;;;0.20;0.08;;;;;;;-146.30;100.00;58188.94;10496652;28;20047;-82
2024/01/04 14:12:19;;;;;;;0.30;0.17;;;;;;;-146.30;100.00;58188.94;10480027;28;20483;-83
2024/01/04 14:17:21;;;;;;;0.00;0.00;;;;;;;-146.30;100.00;58188.94;10495700;28;20549;-84
2024/01/04 14:22:23;;;;;;;0.38;0.20;;;;;;;-146.30;100.00;58188.94;10481075;28;20707;-85
2024/01/04 14:27:26;;;;;;;0.05;0.00;;;;;;;-146.30;100.00;58188.94;10465508;28;20105;-84
2024/01/04 14:32:31;;;;;;;0.00;0.00;;;;;;;-146.30;100.00;58188.94;10479890;28;20067;-85
2024/01/04 14:37:40;;;;;;;0.30;0.22;;;;;;;-146.30;100.00;58188.94;10504246;28;20044;-84
2024/01/04 14:42:43;;;;;;;0.00;0.00;;;;;;;-146.30;100.00;58188.94;10471186;28;20566;-85
2024/01/04 14:47:46;;;;;;;0.22;0.20;;;;;;;-146.30;100.00;58188.94;10499132;28;20048;-84
2024/01/04 14:52:49;;;;;;;0.00;0.00;;;;;;;-146.30;100.00;58188.94;10482112;28;20044;-84
2024/01/04 14:57:51;;;;;;;0.10;0.10;;;;;;;-146.30;100.00;58188.94;10495299;28;20037;-83
2024/01/04 15:02:53;;;;;;;0.10;0.10;;;;;;;-146.30;100.00;58188.94;10481336;28;20131;-83
2024/01/04 15:07:55;;;;;;;0.00;0.00;;;;;;;-146.30;100.00;58188.94;10494147;28;20461;-83
2024/01/04 15:12:56;;;;;;;0.45;0.10;;;;;;;-146.30;100.00;58188.94;10510400;28;20040;-84
2024/01/04 15:18:00;;;;;;;0.00;0.00;;;;;;;-146.30;100.00;58188.94;10463489;28;20055;-83
2024/01/04 15:23:03;;;;;;;0.00;0.00;;;;;;;-146.30;100.00;58188.94;10477144;28;20083;-83
2024/01/04 15:28:06;;;;;;;0.10;0.10;;;;;;;-146.30;100.00;58188.94;10481943;28;20593;-83
2024/01/04 15:33:09;;;;;;;1.08;1.08;;;;;;;-146.30;100.00;58188.94;10477861;28;20127;-83
2024/01/04 15:38:11;;;;;;;0.20;0.00;;;;;;;-146.30;100.00;58188.94;10479392;28;20044;-82
2024/01/04 15:43:12;;;;;;;0.00;0.00;;;;;;;-146.30;100.00;58188.94;10497105;28;20040;-83
2024/01/04 15:48:16;;;;;;;0.13;0.13;;;;;;;-146.30;100.00;58188.94;10477094;28;20537;-82
2024/01/04 15:53:19;;;;;;;3.20;0.20;;;;;;;-146.30;100.00;58188.94;10478747;28;20040;-80
2024/01/04 15:58:20;;;;;;;0.00;0.00;;;;;;;-146.30;100.00;58188.94;10492988;28;20055;-84
2024/01/04 16:03:22;;;;;;;0.00;0.00;;;;;;;-146.30;100.00;58188.94;10482538;28;20048;-83
2024/01/04 16:08:24;;;;;;;0.20;0.20;;;;;;;-146.30;100.00;58188.94;10485119;28;20462;-83
2024/01/04 16:13:26;;;;;;;0.00;0.00;;;;;;;-146.30;100.00;58188.94;10478113;28;20480;-84
2024/01/04 16:18:28;;;;;;;0.00;0.00;;;;;;;-146.30;100.00;58188.94;10480527;28;20060;-83
2024/01/04 16:23:30;;;;;;;0.00;0.00;;;;;;;-146.30;100.00;58188.94;10464883;28;20044;-82
2024/01/04 16:28:32;;;;;;;0.47;0.13;;;;;;;-146.30;100.00;58188.94;10493526;28;20085;-83
2024/01/04 16:33:34;;;;;;;0.00;0.00;;;;;;;-146.30;100.00;58188.94;10478007;28;20048;-82
2024/01/04 16:38:36;;;;;;;0.00;0.00;;;;;;;-146.30;100.00;58188.94;10492856;28;20064;-82
2024/01/04 16:43:39;;;;;;;0.20;0.20;;;;;;;-146.30;100.00;58188.94;10499228;28;20525;-83
2024/01/04 16:48:41;;;;;;;0.05;0.05;;;;;;;-146.30;100.00;58188.94;10494947;28;20071;-83
2024/01/04 16:53:43;;;;;;;0.10;0.10;;;;;;;-146.30;100.00;58188.94;10512856;28;20402;-82
2024/01/04 16:58:46;;;;;;;2.97;1.15;;;;;;;-146.30;100.00;58188.94;10501855;28;20499;-83
2024/01/04 17:03:48;;;;;;;0.00;0.00;;;;;;;-146.30;100.00;58188.94;10503008;28;20032;-83
2024/01/04 17:08:50;;;;;;;0.28;0.15;;;;;;;-146.30;100.00;58188.94;10479163;28;20048;-82
2024/01/04 17:13:51;;;;;;;0.22;0.20;;;;;;;-146.30;100.00;58188.94;10481168;28;20047;-82
2024/01/04 17:18:53;;;;;;;0.35;0.32;;;;;;;-146.30;100.00;58188.94;10482061;28;20457;-82
2024/01/04 17:23:56;;;;;;;1.70;1.05;;;;;;;-146.30;100.00;58188.94;10481804;28;20052;-83
2024/01/04 17:28:58;;;;;;;0.98;0.32;;;;;;;-146.30;100.00;58188.94;10472547;28;20102;-83
2024/01/04 17:34:00;;;;;;;0.25;0.13;;;;;;;-146.30;100.00;58188.94;10503901;28;20051;-82
2024/01/04 17:39:04;;;;;;;3.05;0.57;;;;;;;-146.30;100.00;58188.94;10489241;28;20059;-83
2024/01/04 17:44:07;;;;;;;1.85;1.00;;;;;;;-146.30;100.00;58188.94;10492711;28;20040;-82
2024/01/04 17:49:09;;;;;;;0.38;0.38;;;;;;;-146.30;100.00;58188.94;10497280;28;20040;-82
2024/01/04 17:54:11;;;;;;;1.38;0.93;;;;;;;-146.30;100.00;58188.94;10463534;28;20044;-83
2024/01/04 17:59:14;;;;;;;1.13;0.60;;;;;;;-146.30;100.00;58188.94;10479660;28;20040;-83
2024/01/04 18:04:16;;;;;;;2.47;0.50;;;;;;;-146.30;100.00;58188.94;10465762;28;20052;-83
2024/01/04 18:09:18;;;;;;;5.32;0.68;;;;;;;-146.30;100.00;58188.94;10478288;28;20407;-83
2024/01/04 18:14:20;;;;;;;1.50;0.68;;;;;;;-146.30;100.00;58188.94;10458239;28;20492;-83
2024/01/04 18:19:22;;;;;;;16.85;1.10;;;;;;;-146.30;100.00;58188.94;10480048;28;20479;-86
2024/01/04 18:24:25;;;;;;;1.13;1.02;;;;;;;-146.30;100.00;58188.94;10480747;28;20052;-83
2024/01/04 18:29:27;;;;;;;1.08;0.52;;;;;;;-146.30;100.00;58188.94;10479487;28;20455;-83
2024/01/04 18:34:30;;;;;;;0.70;0.63;;;;;;;-146.30;100.00;58188.94;10461928;28;20048;-83
2024/01/04 18:39:32;;;;;;;11.90;1.23;;;;;;;-146.30;100.00;58188.94;10480095;28;20054;-84
2024/01/04 18:44:36;;;;;;;0.43;0.40;;;;;;;-146.30;100.00;58188.94;10479706;28;20041;-83
2024/01/04 18:49:37;;;;;;;0.80;0.63;;;;;;;-146.30;100.00;58188.94;10479064;28;20090;-84
2024/01/04 18:54:40;;;;;;;0.73;0.68;;;;;;;-146.30;100.00;58188.94;10496703;28;20457;-83
2024/01/04 18:59:42;;;;;;;1.30;0.85;;;;;;;-146.30;100.00;58188.94;10492886;28;20128;-84
2024/01/04 19:04:46;;;;;;;0.93;0.75;;;;;;;-146.30;100.00;58188.94;10467429;28;20051;-84
2024/01/04 19:09:49;;;;;;;0.25;0.25;;;;;;;-146.30;100.00;58188.94;10494659;28;20382;-83
2024/01/04 19:14:51;;;;;;;0.00;0.00;;;;;;;-146.30;100.00;58188.94;10511423;28;20040;-83
2024/01/04 19:19:53;;;;;;;0.30;0.20;;;;;;;-146.30;100.00;58188.94;10492921;28;20036;-83
2024/01/04 19:24:55;;;;;;;0.00;0.00;;;;;;;-146.30;100.00;58188.94;10487390;28;20165;-83
2024/01/04 19:29:57;;;;;;;0.30;0.28;;;;;;;-146.30;100.00;58188.94;10491630;28;20547;-83
2024/01/04 19:34:59;;;;;;;0.45;0.38;;;;;;;-146.30;100.00;58188.94;10476509;28;20040;-83
2024/01/04 19:40:01;;;;;;;0.60;0.60;;;;;;;-146.30;100.00;58188.94;10475353;28;20077;-83
2024/01/04 19:45:04;;;;;;;0.63;0.52;;;;;;;-146.30;100.00;58188.94;10456830;28;20483;-83
2024/01/04 19:50:07;;;;;;;1.08;0.32;;;;;;;-146.30;100.00;58188.94;10466707;28;20523;-83
2024/01/04 19:55:12;;;;;;;0.57;0.57;;;;;;;-146.30;100.00;58188.94;10478232;28;20040;-83
2024/01/04 20:00:15;;;;;;;6.05;2.85;;;;;;;-146.30;100.00;58188.94;10488445;28;20059;-83
2024/01/04 20:05:17;;;;;;;5.53;1.98;;;;;;;-146.30;100.00;58188.94;10478625;28;20075;-83
2024/01/04 20:10:19;;;;;;;2.10;1.48;;;;;;;-146.30;100.00;58188.94;10484299;28;20538;-83
2024/01/04 20:15:21;;;;;;;11.15;3.85;;;;;;;-146.30;100.00;58188.94;10476041;28;20053;-83
2024/01/04 20:20:23;;;;;;;9.35;4.32;;;;;;;-146.30;100.00;58188.94;10451635;28;20048;-83
2024/01/04 20:25:25;;;;;;;5.30;2.72;;;;;;;-146.30;100.00;58188.94;10476592;28;20041;-83
2024/01/04 20:30:26;;;;;;;5.18;3.08;;;;;;;-146.30;100.00;58188.94;10473676;28;20135;-83
2024/01/04 20:35:30;;;;;;;2.72;1.17;;;;;;;-146.30;100.00;58188.94;10511591;28;20052;-83
2024/01/04 20:40:32;;;;;;;3.85;2.53;;;;;;;-146.30;100.00;58188.94;10493292;28;21568;-83
2024/01/04 20:45:34;;;;;;;5.15;4.07;;;;;;;-146.30;100.00;58188.94;10489553;28;20072;-84
2024/01/04 20:50:35;;;;;;;6.65;4.10;;;;;;;-146.30;100.00;58188.94;10470529;28;20040;-83
2024/01/04 20:55:37;;;;;;;11.20;5.28;;;;;;;-146.30;100.00;58188.94;10476912;28;20136;-83
2024/01/04 21:00:39;;;;;;;13.30;5.43;;;;;;;-146.30;100.00;58188.94;10495349;28;20088;-83
2024/01/04 21:05:41;;;;;;;4.85;4.07;;;;;;;-146.30;100.00;58188.94;10464755;28;20071;-83
2024/01/04 21:10:43;;;;;;;4.03;2.28;;;;;;;-146.30;100.00;58188.94;10499802;28;20045;-83
2024/01/04 21:15:45;;;;;;;7.82;2.05;;;;;;;-146.30;100.00;58188.94;10475069;28;20051;-83
2024/01/04 21:20:47;;;;;;;1.85;1.48;;;;;;;-146.30;100.00;58188.94;10465789;28;20044;-85
2024/01/04 21:25:49;;;;;;;2.20;1.77;;;;;;;-146.30;100.00;58188.94;10501297;28;20092;-83
2024/01/04 21:30:50;;;;;;;0.85;0.20;;;;;;;-146.30;100.00;58188.94;10504368;28;20123;-84
2024/01/04 21:35:52;;;;;;;1.10;0.52;;;;;;;-146.30;100.00;58188.94;10501125;28;20055;-84
2024/01/04 21:40:54;;;;;;;0.57;0.57;;;;;;;-146.30;100.00;58188.94;10499269;28;20062;-84
2024/01/04 21:45:56;;;;;;;2.78;0.68;;;;;;;-146.30;100.00;58188.94;10481824;28;20152;-84
2024/01/04 21:50:58;;;;;;;1.58;1.27;;;;;;;-146.30;100.00;58188.94;10514036;28;20132;-83
2024/01/04 21:56:00;;;;;;;2.17;1.35;;;;;;;-146.30;100.00;58188.94;10465958;28;20098;-84
2024/01/04 22:01:02;;;;;;;2.08;0.93;;;;;;;-146.30;100.00;58188.94;10463481;28;20045;-84
2024/01/04 22:06:07;;;;;;;2.75;1.02;;;;;;;-146.30;100.00;58188.94;10478964;28;20064;-85
2024/01/04 22:11:09;;;;;;;1.50;0.60;;;;;;;-146.30;100.00;58188.94;10515836;28;20036;-84
2024/01/04 22:16:11;;;;;;;3.17;0.85;;;;;;;-146.30;100.00;58188.94;10474217;28;20064;-84
2024/01/04 22:21:22;;;;;;;2.38;1.25;;;;;;;-146.30;100.00;58188.94;10470502;28;20040;-84
2024/01/04 22:26:24;;;;;;;3.65;1.63;;;;;;;-146.30;100.00;58188.94;10515980;28;20123;-85
2024/01/04 22:31:26;;;;;;;0.45;0.38;;;;;;;-146.30;100.00;58188.94;10475202;28;20139;-84
2024/01/04 22:36:28;;;;;;;1.65;0.35;;;;;;;-146.30;100.00;58188.94;10477044;28;20120;-83
2024/01/04 22:41:30;;;;;;;3.28;0.63;;;;;;;-146.30;100.00;58188.94;10481467;28;20048;-84